sensor_id;sensor_type;location;lat;lon;timestamp;temperature;humidity
3186;DHT22;1604;53.700;10.252;2023-05-07T00:02:36;8.90;99.90
3186;DHT22;1604;53.700;10.252;2023-05-07T00:05:39;8.90;99.90
3186;DHT22;1604;53.700;10.252;2023-05-07T00:08:42;8.90;99.90
3186;DHT22;1604;53.700;10.252;2023-05-07T00:11:47;8.90;99.90
3186;DHT22;1604;53.700;10.252;2023-05-07T00:14:49;8.90;99.90
3186;DHT22;1604;53.700;10.252;2023-05-07T00:17:53;8.90;99.90
3186;DHT22;1604;53.700;10.252;2023-05-07T00:20:56;8.80;99.90
3186;DHT22;1604;53.700;10.252;2023-05-07T00:23:58;8.90;99.90
3186;DHT22;1604;53.700;10.252;2023-05-07T00:27:02;8.80;99.90
3186;DHT22;1604;53.700;10.252;2023-05-07T00:30:06;8.80;99.90
3186;DHT22;1604;53.700;10.252;2023-05-07T00:33:10;8.80;99.90
3186;DHT22;1604;53.700;10.252;2023-05-07T00:36:13;8.80;99.90
3186;DHT22;1604;53.700;10.252;2023-05-07T00:39:17;8.80;99.90
3186;DHT22;1604;53.700;10.252;2023-05-07T00:42:19;8.80;99.90
3186;DHT22;1604;53.700;10.252;2023-05-07T00:45:21;8.80;99.90
3186;DHT22;1604;53.700;10.252;2023-05-07T00:48:27;8.80;99.90
3186;DHT22;1604;53.700;10.252;2023-05-07T00:51:29;8.90;99.90
3186;DHT22;1604;53.700;10.252;2023-05-07T00:54:34;8.80;99.90
3186;DHT22;1604;53.700;10.252;2023-05-07T00:57:40;8.80;99.90
3186;DHT22;1604;53.700;10.252;2023-05-07T01:00:43;8.80;99.90
3186;DHT22;1604;53.700;10.252;2023-05-07T01:03:47;8.70;99.90
3186;DHT22;1604;53.700;10.252;2023-05-07T01:06:49;8.70;99.90
3186;DHT22;1604;53.700;10.252;2023-05-07T01:09:52;8.70;99.90
3186;DHT22;1604;53.700;10.252;2023-05-07T01:12:54;8.70;99.90
3186;DHT22;1604;53.700;10.252;2023-05-07T01:15:58;8.70;99.90
3186;DHT22;1604;53.700;10.252;2023-05-07T01:19:02;8.70;99.90
3186;DHT22;1604;53.700;10.252;2023-05-07T01:22:08;8.70;99.90
3186;DHT22;1604;53.700;10.252;2023-05-07T01:25:12;8.70;99.90
3186;DHT22;1604;53.700;10.252;2023-05-07T01:28:17;8.70;99.90
3186;DHT22;1604;53.700;10.252;2023-05-07T01:31:19;8.70;99.90
3186;DHT22;1604;53.700;10.252;2023-05-07T01:34:22;8.70;99.90
3186;DHT22;1604;53.700;10.252;2023-05-07T01:37:25;8.70;99.90
3186;DHT22;1604;53.700;10.252;2023-05-07T01:40:32;8.70;99.90
3186;DHT22;1604;53.700;10.252;2023-05-07T01:43:35;8.70;99.90
3186;DHT22;1604;53.700;10.252;2023-05-07T01:46:38;8.60;99.90
3186;DHT22;1604;53.700;10.252;2023-05-07T01:49:40;8.60;99.90
3186;DHT22;1604;53.700;10.252;2023-05-07T01:52:45;8.60;99.90
3186;DHT22;1604;53.700;10.252;2023-05-07T01:55:50;8.60;99.90
3186;DHT22;1604;53.700;10.252;2023-05-07T01:58:52;8.60;99.90
3186;DHT22;1604;53.700;10.252;2023-05-07T02:01:54;8.60;99.90
3186;DHT22;1604;53.700;10.252;2023-05-07T02:04:56;8.70;99.90
3186;DHT22;1604;53.700;10.252;2023-05-07T02:07:58;8.60;99.90
3186;DHT22;1604;53.700;10.252;2023-05-07T02:11:02;8.60;99.90
3186;DHT22;1604;53.700;10.252;2023-05-07T02:14:04;8.60;99.90
3186;DHT22;1604;53.700;10.252;2023-05-07T02:17:06;8.60;99.90
3186;DHT22;1604;53.700;10.252;2023-05-07T02:20:08;8.60;99.90
3186;DHT22;1604;53.700;10.252;2023-05-07T02:23:13;8.50;99.90
3186;DHT22;1604;53.700;10.252;2023-05-07T02:26:17;8.50;99.90
3186;DHT22;1604;53.700;10.252;2023-05-07T02:29:19;8.50;99.90
3186;DHT22;1604;53.700;10.252;2023-05-07T02:32:21;8.50;99.90
3186;DHT22;1604;53.700;10.252;2023-05-07T02:35:24;8.60;99.90
3186;DHT22;1604;53.700;10.252;2023-05-07T02:38:26;8.50;99.90
3186;DHT22;1604;53.700;10.252;2023-05-07T02:41:29;8.50;99.90
3186;DHT22;1604;53.700;10.252;2023-05-07T02:44:32;8.50;99.90
3186;DHT22;1604;53.700;10.252;2023-05-07T02:47:34;8.50;99.90
3186;DHT22;1604;53.700;10.252;2023-05-07T02:50:35;8.50;99.90
3186;DHT22;1604;53.700;10.252;2023-05-07T02:53:37;8.50;99.90
3186;DHT22;1604;53.700;10.252;2023-05-07T02:56:41;8.50;99.90
3186;DHT22;1604;53.700;10.252;2023-05-07T02:59:43;8.50;99.90
3186;DHT22;1604;53.700;10.252;2023-05-07T03:02:45;8.50;99.90
3186;DHT22;1604;53.700;10.252;2023-05-07T03:05:47;8.50;99.90
3186;DHT22;1604;53.700;10.252;2023-05-07T03:08:49;8.50;99.90
3186;DHT22;1604;53.700;10.252;2023-05-07T03:11:52;8.50;99.90
3186;DHT22;1604;53.700;10.252;2023-05-07T03:14:54;8.50;99.90
3186;DHT22;1604;53.700;10.252;2023-05-07T03:17:56;8.50;99.90
3186;DHT22;1604;53.700;10.252;2023-05-07T03:20:58;8.50;99.90
3186;DHT22;1604;53.700;10.252;2023-05-07T03:24:00;8.60;99.90
3186;DHT22;1604;53.700;10.252;2023-05-07T03:27:04;8.60;99.90
3186;DHT22;1604;53.700;10.252;2023-05-07T03:30:07;8.60;99.90
3186;DHT22;1604;53.700;10.252;2023-05-07T03:33:10;8.60;99.90
3186;DHT22;1604;53.700;10.252;2023-05-07T03:36:12;8.60;99.90
3186;DHT22;1604;53.700;10.252;2023-05-07T03:39:14;8.60;99.90
3186;DHT22;1604;53.700;10.252;2023-05-07T03:42:17;8.50;99.90
3186;DHT22;1604;53.700;10.252;2023-05-07T03:45:20;8.50;99.90
3186;DHT22;1604;53.700;10.252;2023-05-07T03:48:22;8.50;99.90
3186;DHT22;1604;53.700;10.252;2023-05-07T03:51:25;8.60;99.90
3186;DHT22;1604;53.700;10.252;2023-05-07T03:54:27;8.50;99.90
3186;DHT22;1604;53.700;10.252;2023-05-07T03:57:30;8.50;99.90
3186;DHT22;1604;53.700;10.252;2023-05-07T04:00:32;8.50;99.90
3186;DHT22;1604;53.700;10.252;2023-05-07T04:03:38;8.60;99.90
3186;DHT22;1604;53.700;10.252;2023-05-07T04:06:40;8.60;99.90
3186;DHT22;1604;53.700;10.252;2023-05-07T04:09:42;8.60;99.90
3186;DHT22;1604;53.700;10.252;2023-05-07T04:12:45;8.60;99.90
3186;DHT22;1604;53.700;10.252;2023-05-07T04:15:47;8.60;99.90
3186;DHT22;1604;53.700;10.252;2023-05-07T04:18:49;8.50;99.90
3186;DHT22;1604;53.700;10.252;2023-05-07T04:21:51;8.50;99.90
3186;DHT22;1604;53.700;10.252;2023-05-07T04:24:54;8.60;99.90
3186;DHT22;1604;53.700;10.252;2023-05-07T04:27:58;8.60;99.90
3186;DHT22;1604;53.700;10.252;2023-05-07T04:31:00;8.60;99.90
3186;DHT22;1604;53.700;10.252;2023-05-07T04:34:02;8.60;99.90
3186;DHT22;1604;53.700;10.252;2023-05-07T04:37:03;8.50;99.90
3186;DHT22;1604;53.700;10.252;2023-05-07T04:40:07;8.50;99.90
3186;DHT22;1604;53.700;10.252;2023-05-07T04:43:10;8.60;99.90
3186;DHT22;1604;53.700;10.252;2023-05-07T04:46:12;8.60;99.90
3186;DHT22;1604;53.700;10.252;2023-05-07T04:49:29;8.50;99.90
3186;DHT22;1604;53.700;10.252;2023-05-07T04:52:40;8.50;99.90
3186;DHT22;1604;53.700;10.252;2023-05-07T04:55:42;8.50;99.90
3186;DHT22;1604;53.700;10.252;2023-05-07T04:58:46;8.50;99.90
3186;DHT22;1604;53.700;10.252;2023-05-07T05:01:49;8.50;99.90
3186;DHT22;1604;53.700;10.252;2023-05-07T05:04:51;8.50;99.90
3186;DHT22;1604;53.700;10.252;2023-05-07T05:07:53;8.60;99.90
3186;DHT22;1604;53.700;10.252;2023-05-07T05:10:55;8.60;99.90
3186;DHT22;1604;53.700;10.252;2023-05-07T05:13:59;8.60;99.90
3186;DHT22;1604;53.700;10.252;2023-05-07T05:17:04;8.70;99.90
3186;DHT22;1604;53.700;10.252;2023-05-07T05:20:09;8.70;99.90
3186;DHT22;1604;53.700;10.252;2023-05-07T05:23:14;8.70;99.90
3186;DHT22;1604;53.700;10.252;2023-05-07T05:26:16;8.70;99.90
3186;DHT22;1604;53.700;10.252;2023-05-07T05:29:20;8.70;99.90
3186;DHT22;1604;53.700;10.252;2023-05-07T05:32:22;8.70;99.90
3186;DHT22;1604;53.700;10.252;2023-05-07T05:35:24;8.70;99.90
3186;DHT22;1604;53.700;10.252;2023-05-07T05:38:26;8.70;99.90
3186;DHT22;1604;53.700;10.252;2023-05-07T05:41:28;8.70;99.90
3186;DHT22;1604;53.700;10.252;2023-05-07T05:44:31;8.70;99.90
3186;DHT22;1604;53.700;10.252;2023-05-07T05:47:34;8.80;99.90
3186;DHT22;1604;53.700;10.252;2023-05-07T05:50:37;8.90;99.90
3186;DHT22;1604;53.700;10.252;2023-05-07T05:53:40;9.00;99.90
3186;DHT22;1604;53.700;10.252;2023-05-07T05:56:45;9.00;99.90
3186;DHT22;1604;53.700;10.252;2023-05-07T05:59:51;9.00;99.90
3186;DHT22;1604;53.700;10.252;2023-05-07T06:02:53;9.00;99.90
3186;DHT22;1604;53.700;10.252;2023-05-07T06:05:57;9.00;99.90
3186;DHT22;1604;53.700;10.252;2023-05-07T06:09:00;9.10;99.90
3186;DHT22;1604;53.700;10.252;2023-05-07T06:12:02;9.00;99.90
3186;DHT22;1604;53.700;10.252;2023-05-07T06:15:10;9.00;99.90
3186;DHT22;1604;53.700;10.252;2023-05-07T06:18:12;9.10;99.90
3186;DHT22;1604;53.700;10.252;2023-05-07T06:21:14;9.20;99.90
3186;DHT22;1604;53.700;10.252;2023-05-07T06:24:19;9.20;99.90
3186;DHT22;1604;53.700;10.252;2023-05-07T06:27:21;9.30;99.90
3186;DHT22;1604;53.700;10.252;2023-05-07T06:30:26;9.40;99.90
3186;DHT22;1604;53.700;10.252;2023-05-07T06:33:31;9.50;99.90
3186;DHT22;1604;53.700;10.252;2023-05-07T06:36:42;9.60;99.90
3186;DHT22;1604;53.700;10.252;2023-05-07T06:39:46;9.60;99.90
3186;DHT22;1604;53.700;10.252;2023-05-07T06:42:48;9.70;99.90
3186;DHT22;1604;53.700;10.252;2023-05-07T06:45:52;9.70;99.90
3186;DHT22;1604;53.700;10.252;2023-05-07T06:48:57;9.80;99.90
3186;DHT22;1604;53.700;10.252;2023-05-07T06:51:59;9.80;99.90
3186;DHT22;1604;53.700;10.252;2023-05-07T06:55:01;9.80;99.90
3186;DHT22;1604;53.700;10.252;2023-05-07T06:58:03;9.70;99.90
3186;DHT22;1604;53.700;10.252;2023-05-07T07:01:07;9.80;99.90
3186;DHT22;1604;53.700;10.252;2023-05-07T07:04:09;9.80;99.90
3186;DHT22;1604;53.700;10.252;2023-05-07T07:07:12;9.80;99.90
3186;DHT22;1604;53.700;10.252;2023-05-07T07:10:14;9.80;99.90
3186;DHT22;1604;53.700;10.252;2023-05-07T07:13:16;9.80;99.90
3186;DHT22;1604;53.700;10.252;2023-05-07T07:16:22;9.90;99.90
3186;DHT22;1604;53.700;10.252;2023-05-07T07:19:26;10.00;99.90
3186;DHT22;1604;53.700;10.252;2023-05-07T07:22:29;9.90;99.90
3186;DHT22;1604;53.700;10.252;2023-05-07T07:25:31;9.90;99.90
3186;DHT22;1604;53.700;10.252;2023-05-07T07:28:33;10.00;99.90
3186;DHT22;1604;53.700;10.252;2023-05-07T07:31:36;10.00;99.90
3186;DHT22;1604;53.700;10.252;2023-05-07T07:34:38;10.10;99.90
3186;DHT22;1604;53.700;10.252;2023-05-07T07:37:40;10.10;99.90
3186;DHT22;1604;53.700;10.252;2023-05-07T07:40:45;10.10;99.90
3186;DHT22;1604;53.700;10.252;2023-05-07T07:43:47;10.20;99.90
3186;DHT22;1604;53.700;10.252;2023-05-07T07:46:50;10.20;99.90
3186;DHT22;1604;53.700;10.252;2023-05-07T07:49:52;10.20;99.90
3186;DHT22;1604;53.700;10.252;2023-05-07T07:52:54;10.20;99.90
3186;DHT22;1604;53.700;10.252;2023-05-07T07:55:56;10.30;99.90
3186;DHT22;1604;53.700;10.252;2023-05-07T07:58:58;10.40;99.90
3186;DHT22;1604;53.700;10.252;2023-05-07T08:02:01;10.40;99.90
3186;DHT22;1604;53.700;10.252;2023-05-07T08:05:03;10.50;99.90
3186;DHT22;1604;53.700;10.252;2023-05-07T08:08:05;10.50;99.90
3186;DHT22;1604;53.700;10.252;2023-05-07T08:11:07;10.50;99.90
3186;DHT22;1604;53.700;10.252;2023-05-07T08:14:10;10.50;99.90
3186;DHT22;1604;53.700;10.252;2023-05-07T08:17:13;10.60;99.90
3186;DHT22;1604;53.700;10.252;2023-05-07T08:20:16;10.60;99.90
3186;DHT22;1604;53.700;10.252;2023-05-07T08:23:20;10.70;99.90
3186;DHT22;1604;53.700;10.252;2023-05-07T08:26:22;10.70;99.90
3186;DHT22;1604;53.700;10.252;2023-05-07T08:29:24;10.60;99.90
3186;DHT22;1604;53.700;10.252;2023-05-07T08:32:27;10.70;99.90
3186;DHT22;1604;53.700;10.252;2023-05-07T08:35:29;10.70;99.90
3186;DHT22;1604;53.700;10.252;2023-05-07T08:38:31;10.80;99.90
3186;DHT22;1604;53.700;10.252;2023-05-07T08:41:34;10.80;99.90
3186;DHT22;1604;53.700;10.252;2023-05-07T08:44:38;10.90;99.90
3186;DHT22;1604;53.700;10.252;2023-05-07T08:47:44;10.90;99.90
3186;DHT22;1604;53.700;10.252;2023-05-07T08:50:48;11.00;99.90
3186;DHT22;1604;53.700;10.252;2023-05-07T08:53:50;11.00;99.90
3186;DHT22;1604;53.700;10.252;2023-05-07T08:56:52;11.00;99.90
3186;DHT22;1604;53.700;10.252;2023-05-07T08:59:54;11.10;99.90
3186;DHT22;1604;53.700;10.252;2023-05-07T09:02:57;11.10;99.90
3186;DHT22;1604;53.700;10.252;2023-05-07T09:05:59;11.20;99.90
3186;DHT22;1604;53.700;10.252;2023-05-07T09:09:01;11.20;99.90
3186;DHT22;1604;53.700;10.252;2023-05-07T09:12:06;11.20;99.90
3186;DHT22;1604;53.700;10.252;2023-05-07T09:15:08;11.20;99.90
3186;DHT22;1604;53.700;10.252;2023-05-07T09:18:12;11.30;99.90
3186;DHT22;1604;53.700;10.252;2023-05-07T09:21:15;11.30;99.90
3186;DHT22;1604;53.700;10.252;2023-05-07T09:24:17;11.30;99.90
3186;DHT22;1604;53.700;10.252;2023-05-07T09:27:19;11.40;99.90
3186;DHT22;1604;53.700;10.252;2023-05-07T09:30:21;11.50;99.90
3186;DHT22;1604;53.700;10.252;2023-05-07T09:33:28;11.60;99.90
3186;DHT22;1604;53.700;10.252;2023-05-07T09:36:31;11.70;99.90
3186;DHT22;1604;53.700;10.252;2023-05-07T09:39:40;11.80;99.90
3186;DHT22;1604;53.700;10.252;2023-05-07T09:42:43;11.90;99.80
3186;DHT22;1604;53.700;10.252;2023-05-07T09:45:46;11.90;99.60
3186;DHT22;1604;53.700;10.252;2023-05-07T09:48:59;12.00;99.40
3186;DHT22;1604;53.700;10.252;2023-05-07T09:52:04;12.10;99.10
3186;DHT22;1604;53.700;10.252;2023-05-07T09:55:12;12.10;99.20
3186;DHT22;1604;53.700;10.252;2023-05-07T09:58:15;12.20;98.70
3186;DHT22;1604;53.700;10.252;2023-05-07T10:01:18;12.30;98.70
3186;DHT22;1604;53.700;10.252;2023-05-07T10:04:24;12.40;98.30
3186;DHT22;1604;53.700;10.252;2023-05-07T10:07:26;12.50;97.50
3186;DHT22;1604;53.700;10.252;2023-05-07T10:10:29;12.60;97.90
3186;DHT22;1604;53.700;10.252;2023-05-07T10:13:33;12.60;98.00
3186;DHT22;1604;53.700;10.252;2023-05-07T10:16:37;12.70;97.80
3186;DHT22;1604;53.700;10.252;2023-05-07T10:19:40;12.90;97.90
3186;DHT22;1604;53.700;10.252;2023-05-07T10:22:48;13.20;97.60
3186;DHT22;1604;53.700;10.252;2023-05-07T10:25:50;13.40;96.50
3186;DHT22;1604;53.700;10.252;2023-05-07T10:28:59;13.60;94.60
3186;DHT22;1604;53.700;10.252;2023-05-07T10:32:18;13.70;94.90
3186;DHT22;1604;53.700;10.252;2023-05-07T10:35:31;13.80;94.60
3186;DHT22;1604;53.700;10.252;2023-05-07T10:38:36;13.90;95.20
3186;DHT22;1604;53.700;10.252;2023-05-07T10:41:41;14.10;94.90
3186;DHT22;1604;53.700;10.252;2023-05-07T10:44:43;14.30;94.10
3186;DHT22;1604;53.700;10.252;2023-05-07T10:48:07;14.70;92.40
3186;DHT22;1604;53.700;10.252;2023-05-07T10:51:21;14.90;90.60
3186;DHT22;1604;53.700;10.252;2023-05-07T10:54:23;15.20;89.50
3186;DHT22;1604;53.700;10.252;2023-05-07T10:57:35;15.30;88.00
3186;DHT22;1604;53.700;10.252;2023-05-07T11:00:56;15.40;88.80
3186;DHT22;1604;53.700;10.252;2023-05-07T11:04:15;15.60;88.90
3186;DHT22;1604;53.700;10.252;2023-05-07T11:07:32;15.80;87.80
3186;DHT22;1604;53.700;10.252;2023-05-07T11:10:50;15.90;87.40
3186;DHT22;1604;53.700;10.252;2023-05-07T11:14:06;16.10;86.80
3186;DHT22;1604;53.700;10.252;2023-05-07T11:17:22;16.40;86.20
3186;DHT22;1604;53.700;10.252;2023-05-07T11:20:50;16.50;84.80
3186;DHT22;1604;53.700;10.252;2023-05-07T11:24:08;16.70;84.40
3186;DHT22;1604;53.700;10.252;2023-05-07T11:27:24;16.80;84.10
3186;DHT22;1604;53.700;10.252;2023-05-07T11:30:28;17.10;81.00
3186;DHT22;1604;53.700;10.252;2023-05-07T11:33:31;17.20;81.90
3186;DHT22;1604;53.700;10.252;2023-05-07T11:36:33;17.30;81.00
3186;DHT22;1604;53.700;10.252;2023-05-07T11:39:36;17.20;80.00
3186;DHT22;1604;53.700;10.252;2023-05-07T11:42:40;17.10;80.50
3186;DHT22;1604;53.700;10.252;2023-05-07T11:45:44;17.00;80.40
3186;DHT22;1604;53.700;10.252;2023-05-07T11:48:47;17.10;81.60
3186;DHT22;1604;53.700;10.252;2023-05-07T11:51:49;17.30;79.40
3186;DHT22;1604;53.700;10.252;2023-05-07T11:54:54;17.30;78.60
3186;DHT22;1604;53.700;10.252;2023-05-07T11:57:56;17.30;79.90
3186;DHT22;1604;53.700;10.252;2023-05-07T12:00:58;17.30;78.70
3186;DHT22;1604;53.700;10.252;2023-05-07T12:04:03;17.20;79.00
3186;DHT22;1604;53.700;10.252;2023-05-07T12:07:19;17.20;79.30
3186;DHT22;1604;53.700;10.252;2023-05-07T12:17:42;17.70;77.30
3186;DHT22;1604;53.700;10.252;2023-05-07T12:20:45;17.70;77.90
3186;DHT22;1604;53.700;10.252;2023-05-07T12:23:48;17.70;78.00
3186;DHT22;1604;53.700;10.252;2023-05-07T12:26:51;17.80;77.30
3186;DHT22;1604;53.700;10.252;2023-05-07T12:29:53;17.90;76.90
3186;DHT22;1604;53.700;10.252;2023-05-07T12:32:55;18.00;76.20
3186;DHT22;1604;53.700;10.252;2023-05-07T12:36:00;18.00;76.60
3186;DHT22;1604;53.700;10.252;2023-05-07T12:39:04;18.00;74.20
3186;DHT22;1604;53.700;10.252;2023-05-07T12:42:08;17.90;76.20
3186;DHT22;1604;53.700;10.252;2023-05-07T12:45:16;17.80;74.90
3186;DHT22;1604;53.700;10.252;2023-05-07T13:45:37;19.10;68.40
3186;DHT22;1604;53.700;10.252;2023-05-07T14:33:05;19.00;67.70
3186;DHT22;1604;53.700;10.252;2023-05-07T14:36:25;18.90;68.30
3186;DHT22;1604;53.700;10.252;2023-05-07T14:39:41;18.90;67.60
3186;DHT22;1604;53.700;10.252;2023-05-07T14:42:57;18.80;68.30
3186;DHT22;1604;53.700;10.252;2023-05-07T14:46:20;18.80;68.00
3186;DHT22;1604;53.700;10.252;2023-05-07T14:49:37;18.80;69.50
3186;DHT22;1604;53.700;10.252;2023-05-07T14:52:39;18.70;68.20
3186;DHT22;1604;53.700;10.252;2023-05-07T14:55:42;18.80;69.80
3186;DHT22;1604;53.700;10.252;2023-05-07T14:58:45;18.70;69.10
3186;DHT22;1604;53.700;10.252;2023-05-07T15:01:48;18.60;69.60
3186;DHT22;1604;53.700;10.252;2023-05-07T15:04:51;18.60;70.70
3186;DHT22;1604;53.700;10.252;2023-05-07T15:07:53;18.60;69.50
3186;DHT22;1604;53.700;10.252;2023-05-07T15:10:56;18.60;70.70
3186;DHT22;1604;53.700;10.252;2023-05-07T15:13:58;18.60;70.70
3186;DHT22;1604;53.700;10.252;2023-05-07T15:17:00;18.50;69.00
3186;DHT22;1604;53.700;10.252;2023-05-07T15:20:05;18.40;68.60
3186;DHT22;1604;53.700;10.252;2023-05-07T15:23:08;18.20;69.40
3186;DHT22;1604;53.700;10.252;2023-05-07T15:26:12;18.00;70.10
3186;DHT22;1604;53.700;10.252;2023-05-07T15:29:14;17.80;70.90
3186;DHT22;1604;53.700;10.252;2023-05-07T15:32:16;17.70;71.50
3186;DHT22;1604;53.700;10.252;2023-05-07T15:35:19;17.60;72.50
3186;DHT22;1604;53.700;10.252;2023-05-07T15:38:40;17.50;71.50
3186;DHT22;1604;53.700;10.252;2023-05-07T15:41:59;17.30;71.60
3186;DHT22;1604;53.700;10.252;2023-05-07T15:45:20;17.10;73.20
3186;DHT22;1604;53.700;10.252;2023-05-07T15:48:36;17.10;72.40
3186;DHT22;1604;53.700;10.252;2023-05-07T15:51:53;17.00;72.70
3186;DHT22;1604;53.700;10.252;2023-05-07T15:55:09;16.90;72.40
3186;DHT22;1604;53.700;10.252;2023-05-07T16:02:00;16.80;73.50
3186;DHT22;1604;53.700;10.252;2023-05-07T16:05:16;16.80;73.00
3186;DHT22;1604;53.700;10.252;2023-05-07T16:08:33;16.70;73.50
3186;DHT22;1604;53.700;10.252;2023-05-07T16:11:49;16.60;74.50
3186;DHT22;1604;53.700;10.252;2023-05-07T16:15:05;16.60;74.80
3186;DHT22;1604;53.700;10.252;2023-05-07T16:18:21;16.50;75.20
3186;DHT22;1604;53.700;10.252;2023-05-07T16:21:40;16.50;73.60
3186;DHT22;1604;53.700;10.252;2023-05-07T16:28:14;16.40;74.10
3186;DHT22;1604;53.700;10.252;2023-05-07T16:31:30;16.40;74.60
3186;DHT22;1604;53.700;10.252;2023-05-07T16:34:51;16.40;75.10
3186;DHT22;1604;53.700;10.252;2023-05-07T16:38:06;16.40;74.50
3186;DHT22;1604;53.700;10.252;2023-05-07T16:48:00;16.30;75.40
3186;DHT22;1604;53.700;10.252;2023-05-07T16:51:06;16.30;75.50
3186;DHT22;1604;53.700;10.252;2023-05-07T16:54:09;16.30;75.10
3186;DHT22;1604;53.700;10.252;2023-05-07T16:57:24;16.20;75.50
3186;DHT22;1604;53.700;10.252;2023-05-07T17:00:28;16.00;76.40
3186;DHT22;1604;53.700;10.252;2023-05-07T17:06:55;15.90;76.50
3186;DHT22;1604;53.700;10.252;2023-05-07T17:09:57;15.80;77.80
3186;DHT22;1604;53.700;10.252;2023-05-07T17:12:59;15.70;78.50
3186;DHT22;1604;53.700;10.252;2023-05-07T17:16:02;15.60;78.70
3186;DHT22;1604;53.700;10.252;2023-05-07T17:19:04;15.50;78.00
3186;DHT22;1604;53.700;10.252;2023-05-07T17:22:07;15.50;78.00
3186;DHT22;1604;53.700;10.252;2023-05-07T17:28:19;15.40;77.50
3186;DHT22;1604;53.700;10.252;2023-05-07T17:56:43;14.90;80.60
3186;DHT22;1604;53.700;10.252;2023-05-07T17:59:59;14.80;81.10
3186;DHT22;1604;53.700;10.252;2023-05-07T18:03:15;14.80;81.80
3186;DHT22;1604;53.700;10.252;2023-05-07T18:06:17;14.70;82.50
3186;DHT22;1604;53.700;10.252;2023-05-07T18:09:39;14.60;83.20
3186;DHT22;1604;53.700;10.252;2023-05-07T18:12:43;14.60;84.00
3186;DHT22;1604;53.700;10.252;2023-05-07T18:15:58;14.50;84.40
3186;DHT22;1604;53.700;10.252;2023-05-07T18:19:14;14.40;84.50
3186;DHT22;1604;53.700;10.252;2023-05-07T18:22:16;14.30;84.40
3186;DHT22;1604;53.700;10.252;2023-05-07T18:25:18;14.30;83.80
3186;DHT22;1604;53.700;10.252;2023-05-07T18:31:56;14.20;84.70
3186;DHT22;1604;53.700;10.252;2023-05-07T18:34:58;14.10;84.80
3186;DHT22;1604;53.700;10.252;2023-05-07T18:38:00;14.10;85.30
3186;DHT22;1604;53.700;10.252;2023-05-07T18:41:02;14.00;85.60
3186;DHT22;1604;53.700;10.252;2023-05-07T18:44:20;13.90;85.70
3186;DHT22;1604;53.700;10.252;2023-05-07T18:47:39;13.90;86.00
3186;DHT22;1604;53.700;10.252;2023-05-07T18:51:02;13.80;86.40
3186;DHT22;1604;53.700;10.252;2023-05-07T18:54:17;13.70;86.90
3186;DHT22;1604;53.700;10.252;2023-05-07T18:57:33;13.60;87.20
3186;DHT22;1604;53.700;10.252;2023-05-07T19:00:57;13.60;87.40
3186;DHT22;1604;53.700;10.252;2023-05-07T19:04:19;13.50;87.90
3186;DHT22;1604;53.700;10.252;2023-05-07T19:07:42;13.40;88.30
3186;DHT22;1604;53.700;10.252;2023-05-07T19:11:04;13.30;88.50
3186;DHT22;1604;53.700;10.252;2023-05-07T19:14:26;13.20;88.90
3186;DHT22;1604;53.700;10.252;2023-05-07T19:21:05;13.10;89.40
3186;DHT22;1604;53.700;10.252;2023-05-07T19:24:21;13.00;89.70
3186;DHT22;1604;53.700;10.252;2023-05-07T19:27:23;12.90;90.00
3186;DHT22;1604;53.700;10.252;2023-05-07T19:30:25;12.80;90.40
3186;DHT22;1604;53.700;10.252;2023-05-07T19:33:46;12.80;90.70
3186;DHT22;1604;53.700;10.252;2023-05-07T19:37:02;12.70;91.00
3186;DHT22;1604;53.700;10.252;2023-05-07T19:40:18;12.60;91.40
3186;DHT22;1604;53.700;10.252;2023-05-07T19:43:40;12.60;91.70
3186;DHT22;1604;53.700;10.252;2023-05-07T19:47:03;12.50;92.30
3186;DHT22;1604;53.700;10.252;2023-05-07T19:50:08;12.40;93.10
3186;DHT22;1604;53.700;10.252;2023-05-07T19:53:24;12.30;93.70
3186;DHT22;1604;53.700;10.252;2023-05-07T19:56:26;12.20;94.20
3186;DHT22;1604;53.700;10.252;2023-05-07T19:59:28;12.10;94.50
3186;DHT22;1604;53.700;10.252;2023-05-07T20:02:30;12.00;94.60
3186;DHT22;1604;53.700;10.252;2023-05-07T20:12:51;11.80;94.90
3186;DHT22;1604;53.700;10.252;2023-05-07T20:15:56;11.70;95.10
3186;DHT22;1604;53.700;10.252;2023-05-07T20:19:12;11.60;95.50
3186;DHT22;1604;53.700;10.252;2023-05-07T20:22:29;11.60;95.70
3186;DHT22;1604;53.700;10.252;2023-05-07T20:29:10;11.40;96.20
3186;DHT22;1604;53.700;10.252;2023-05-07T20:32:34;11.40;96.60
3186;DHT22;1604;53.700;10.252;2023-05-07T20:35:36;11.30;96.80
3186;DHT22;1604;53.700;10.252;2023-05-07T20:38:38;11.20;97.00
3186;DHT22;1604;53.700;10.252;2023-05-07T20:41:54;11.20;97.20
3186;DHT22;1604;53.700;10.252;2023-05-07T20:45:16;11.10;97.60
3186;DHT22;1604;53.700;10.252;2023-05-07T20:48:32;11.10;97.80
3186;DHT22;1604;53.700;10.252;2023-05-07T20:51:48;11.00;98.00
3186;DHT22;1604;53.700;10.252;2023-05-07T20:55:04;10.90;98.20
3186;DHT22;1604;53.700;10.252;2023-05-07T20:58:20;10.90;98.30
3186;DHT22;1604;53.700;10.252;2023-05-07T23:32:48;10.10;99.90
3186;DHT22;1604;53.700;10.252;2023-05-07T23:35:57;10.00;99.90
3186;DHT22;1604;53.700;10.252;2023-05-07T23:39:17;10.00;99.90
3186;DHT22;1604;53.700;10.252;2023-05-07T23:42:19;9.90;99.90
3186;DHT22;1604;53.700;10.252;2023-05-07T23:45:21;9.80;99.90
3186;DHT22;1604;53.700;10.252;2023-05-07T23:48:25;9.80;99.90
3186;DHT22;1604;53.700;10.252;2023-05-07T23:51:27;9.80;99.90
3186;DHT22;1604;53.700;10.252;2023-05-07T23:54:29;9.70;99.90
3186;DHT22;1604;53.700;10.252;2023-05-07T23:57:31;9.70;99.90
